Aérodrome :
LOGIN :

S'inscrire | Disclaimer

   EN    FR    IT 

 










Légende :    VFR   VFR Marginal   IFR   IFR Intensif   IFR Très Intensif
Visi : 
Plafond : 
>= 8 km
>= 3000ft
5 à 8 km
1000 à 3000 ft
1500m à 5 km
500 à 1000 ft
800 à 1500m
200 à 500 ft
< 800m
< 200 ft
Symboles :   Orages  Brouillard  Fortes neiges  Fortes précipitations  Vent > 20 kt
SIGMETs :   Divers  Orages  Givrage  Turbulence  Onde Orograph.  Cendres Volcan.







- Altitude de l'aérodrome : 242 ft
- Code IATA : DUB


EIDW - Dublin

DERNIER METAR :
  • 210830Z 24008KT 200V280 9999 -RA SCT010 BKN030 BKN200 14/13 Q1025 NOSIG

METARs EXPIRÉS :
  • 210800Z 23009KT 200V280 9999 FEW010 BKN030 BKN200 14/13 Q1025 NOSIG
  • 210730Z 24011KT 200V280 9999 SCT010 BKN080 14/12 Q1024 NOSIG
  • 210700Z 23008KT 200V270 9999 FEW010 BKN080 14/13 Q1024 NOSIG
  • 210630Z 23008KT 190V270 9999 FEW010 BKN060 14/13 Q1024 NOSIG
  • 210600Z 22007KT 170V260 9999 FEW012 BKN060 14/13 Q1024 NOSIG
  • 210530Z 22007KT 190V260 9999 FEW012 BKN060 14/12 Q1025 NOSIG

TAF TAF EIDW
Valide du 21 à 06h jusqu'au 22 à 06h UTC


210500Z 2106/2206 23008KT 9999 FEW015 BKN030
TEMPO 2106/2110 BKN013
PROB40
TEMPO 2106/2109 5000 -RADZ BKN007
BECMG 2109/2111 31012KT
PROB40
TEMPO 2111/2116 30015G27KT
BECMG 2121/2124 27008KT
Pas de NOTAMs connus pour ce terrain.



MET'MAP, la Météo Aéronautique d'un coup d'oeil ! - Copyright ORBIFLY Décembre 2007 - Disclaimer

ORBIFLY MET'MAP TEAM :

Programmation & Développement : Alexandra Zaïnal
Conception & Développement : Baudouin d'Aumeries
Co-Programmation & Développement : Marc-Olivier Méhu
Soutien technique & logistique : Manuel Goepfert

Contact : metmap@orbifly.com




SOURCES & CREDITS :

   NOAA